Time;durP1;ratioP1;P1;durP2;ratioP2;P2;SDS_P1;SDS_P2;PMS_P1;PMS_P2;Temp;Humidity;BMP_temperature;BMP_pressure;BME280_temperature;BME280_humidity;BME280_pressure;Samples;Min_cycle;Max_cycle;Signal;HPM_P1;HPM_P2
2023/03/22 00:00:36;;;;;;;5.17;4.47;;;;;;;;;;5007327;28;20620;-54
2023/03/22 00:03:03;;;;;;;4.87;4.23;;;;;;;;;;5008722;28;20237;-55
2023/03/22 00:05:29;;;;;;;5.10;4.23;;;;;;;;;;5009916;28;20654;-54
2023/03/22 00:07:58;;;;;;;5.57;4.53;;;;;;;;;;5013155;28;20806;-54
2023/03/22 00:10:26;;;;;;;4.93;4.47;;;;;;;;;;5009024;28;20190;-54
2023/03/22 00:12:52;;;;;;;5.43;4.07;;;;;;;;;;5013060;28;20167;-54
2023/03/22 00:15:18;;;;;;;6.30;4.50;;;;;;;;;;5010801;28;20201;-54
2023/03/22 00:17:44;;;;;;;7.63;4.70;;;;;;;;;;5012777;28;20194;-54
2023/03/22 00:20:11;;;;;;;6.83;4.93;;;;;;;;;;5012448;28;20223;-54
2023/03/22 00:22:38;;;;;;;8.47;4.67;;;;;;;;;;5012479;28;20191;-54
2023/03/22 00:25:04;;;;;;;7.70;5.43;;;;;;;;;;5011781;28;20910;-54
2023/03/22 00:27:30;;;;;;;8.10;4.97;;;;;;;;;;5012243;28;20217;-54
2023/03/22 00:29:56;;;;;;;5.90;5.23;;;;;;;;;;5012325;28;20175;-54
2023/03/22 00:32:22;;;;;;;5.20;4.70;;;;;;;;;;5012211;28;20178;-54
2023/03/22 00:34:49;;;;;;;7.10;4.97;;;;;;;;;;5011838;28;20525;-54
2023/03/22 00:37:15;;;;;;;4.30;3.90;;;;;;;;;;5011726;28;20194;-54
2023/03/22 00:39:41;;;;;;;8.23;5.17;;;;;;;;;;5013033;28;20634;-54
2023/03/22 00:42:07;;;;;;;7.97;5.53;;;;;;;;;;5022522;28;20184;-54
2023/03/22 00:44:34;;;;;;;6.93;5.67;;;;;;;;;;5014274;28;20178;-54
2023/03/22 00:47:00;;;;;;;6.10;5.47;;;;;;;;;;5010087;28;20410;-54
2023/03/22 00:49:26;;;;;;;5.47;4.97;;;;;;;;;;5011428;28;20170;-54
2023/03/22 00:51:53;;;;;;;5.97;4.97;;;;;;;;;;5011265;28;20179;-54
2023/03/22 00:54:19;;;;;;;5.30;4.70;;;;;;;;;;5012204;28;20171;-54
2023/03/22 00:56:45;;;;;;;6.13;5.10;;;;;;;;;;5011882;28;20277;-54
2023/03/22 00:59:12;;;;;;;6.90;5.07;;;;;;;;;;5010953;28;20190;-54
2023/03/22 01:01:38;;;;;;;5.37;4.87;;;;;;;;;;5012926;28;20561;-54
2023/03/22 01:04:04;;;;;;;6.40;5.33;;;;;;;;;;5010276;28;20700;-54
2023/03/22 01:06:31;;;;;;;7.83;5.43;;;;;;;;;;5011347;28;20657;-54
2023/03/22 01:08:57;;;;;;;6.10;5.20;;;;;;;;;;5009801;28;20292;-54
2023/03/22 01:11:24;;;;;;;8.67;6.03;;;;;;;;;;5011953;28;20206;-54
2023/03/22 01:13:50;;;;;;;6.07;5.47;;;;;;;;;;5010981;28;20186;-54
2023/03/22 01:16:16;;;;;;;7.57;5.13;;;;;;;;;;5010266;28;20186;-54
2023/03/22 01:18:42;;;;;;;7.90;5.17;;;;;;;;;;5010594;28;20257;-55
2023/03/22 01:21:09;;;;;;;7.17;5.70;;;;;;;;;;5012134;28;20175;-54
2023/03/22 01:23:35;;;;;;;7.40;5.90;;;;;;;;;;5011119;28;20264;-54
2023/03/22 01:26:01;;;;;;;9.57;5.70;;;;;;;;;;5011855;28;20179;-54
2023/03/22 01:28:28;;;;;;;6.40;5.73;;;;;;;;;;5010251;28;20209;-53
2023/03/22 01:30:54;;;;;;;9.03;5.90;;;;;;;;;;5010538;28;20187;-53
2023/03/22 01:33:21;;;;;;;6.27;5.07;;;;;;;;;;5010362;28;20308;-54
2023/03/22 01:35:47;;;;;;;8.03;5.33;;;;;;;;;;5010620;28;20822;-54
2023/03/22 01:38:13;;;;;;;9.00;5.50;;;;;;;;;;5011108;28;20233;-54
2023/03/22 01:40:39;;;;;;;5.97;5.40;;;;;;;;;;5011320;28;20185;-54
2023/03/22 01:43:11;;;;;;;5.97;4.77;;;;;;;;;;5011697;28;20256;-54
2023/03/22 01:45:37;;;;;;;7.03;6.00;;;;;;;;;;5010497;28;20187;-54
2023/03/22 01:48:15;;;;;;;6.73;6.03;;;;;;;;;;5014789;28;20209;-54
2023/03/22 01:50:42;;;;;;;10.07;5.77;;;;;;;;;;5012821;28;20578;-54
2023/03/22 01:53:08;;;;;;;7.20;5.33;;;;;;;;;;5011112;28;20174;-54
2023/03/22 01:55:34;;;;;;;6.70;4.80;;;;;;;;;;5010589;28;20198;-54
2023/03/22 01:58:01;;;;;;;7.80;5.87;;;;;;;;;;5011322;28;20657;-54
2023/03/22 02:00:27;;;;;;;8.20;5.67;;;;;;;;;;5008415;28;20198;-54
2023/03/22 02:02:54;;;;;;;6.93;5.13;;;;;;;;;;5011108;28;20202;-54
2023/03/22 02:05:23;;;;;;;6.80;5.17;;;;;;;;;;5017199;28;20171;-54
2023/03/22 02:07:49;;;;;;;6.07;5.43;;;;;;;;;;5010721;28;20975;-54
2023/03/22 02:10:20;;;;;;;9.03;6.53;;;;;;;;;;5010481;28;20183;-54
2023/03/22 02:12:58;;;;;;;8.10;5.63;;;;;;;;;;5010711;28;20221;-54
2023/03/22 02:15:45;;;;;;;8.17;5.60;;;;;;;;;;5008049;28;20239;-54
2023/03/22 02:18:30;;;;;;;6.50;5.90;;;;;;;;;;5008102;28;20186;-54
2023/03/22 02:21:19;;;;;;;7.07;5.77;;;;;;;;;;5004109;28;20284;-54
2023/03/22 02:24:12;;;;;;;6.97;6.27;;;;;;;;;;5008571;28;20197;-54
2023/03/22 02:27:05;;;;;;;6.17;5.57;;;;;;;;;;5009776;28;20198;-54
2023/03/22 02:29:52;;;;;;;6.93;5.77;;;;;;;;;;4996222;28;20589;-54
2023/03/22 02:32:37;;;;;;;7.77;6.23;;;;;;;;;;5010395;28;20205;-55
2023/03/22 02:35:15;;;;;;;7.93;5.87;;;;;;;;;;5010224;28;20729;-54
2023/03/22 02:38:00;;;;;;;7.27;6.00;;;;;;;;;;5004630;28;20246;-54
2023/03/22 02:40:32;;;;;;;8.37;6.27;;;;;;;;;;5009694;28;20773;-54
2023/03/22 02:43:10;;;;;;;6.07;5.43;;;;;;;;;;5010243;28;20186;-54
2023/03/22 02:45:51;;;;;;;10.77;6.43;;;;;;;;;;5009692;28;20279;-54
2023/03/22 02:48:37;;;;;;;6.47;5.77;;;;;;;;;;5009426;28;20206;-56
2023/03/22 02:51:09;;;;;;;6.47;5.87;;;;;;;;;;5015581;28;20189;-55
2023/03/22 02:53:35;;;;;;;6.93;6.20;;;;;;;;;;5011280;28;20182;-56
2023/03/22 02:56:01;;;;;;;7.23;6.50;;;;;;;;;;5011692;28;20178;-55
2023/03/22 02:58:35;;;;;;;10.87;6.80;;;;;;;;;;5008479;28;20636;-54
2023/03/22 03:01:04;;;;;;;6.70;6.00;;;;;;;;;;5008257;28;20197;-53
2023/03/22 03:03:31;;;;;;;8.80;6.03;;;;;;;;;;5009254;28;20192;-54
2023/03/22 03:06:01;;;;;;;8.00;6.23;;;;;;;;;;5018271;28;20180;-54
2023/03/22 03:08:27;;;;;;;7.33;6.27;;;;;;;;;;5009534;28;20226;-54
2023/03/22 03:10:54;;;;;;;8.17;6.97;;;;;;;;;;5009611;28;20204;-54
2023/03/22 03:13:20;;;;;;;10.73;6.87;;;;;;;;;;5009758;28;20190;-54
2023/03/22 03:15:48;;;;;;;8.07;6.10;;;;;;;;;;5009523;28;20189;-54
2023/03/22 03:18:33;;;;;;;7.67;5.87;;;;;;;;;;5006494;28;20207;-54
2023/03/22 03:21:19;;;;;;;8.87;6.30;;;;;;;;;;5013234;28;20278;-54
2023/03/22 03:23:52;;;;;;;7.70;6.13;;;;;;;;;;5008265;28;20576;-54
2023/03/22 03:26:29;;;;;;;7.67;5.93;;;;;;;;;;5009666;28;20575;-54
2023/03/22 03:29:04;;;;;;;6.97;5.57;;;;;;;;;;5008668;28;20215;-54
2023/03/22 03:31:41;;;;;;;6.73;6.10;;;;;;;;;;5008597;28;20178;-54
2023/03/22 03:34:28;;;;;;;9.03;6.00;;;;;;;;;;5009095;28;20649;-53
2023/03/22 03:37:03;;;;;;;8.40;6.67;;;;;;;;;;5004289;28;20748;-53
2023/03/22 03:39:32;;;;;;;7.07;6.40;;;;;;;;;;5009322;28;20574;-53
2023/03/22 03:41:59;;;;;;;7.33;6.43;;;;;;;;;;5008840;28;20654;-53
2023/03/22 03:44:26;;;;;;;7.27;6.37;;;;;;;;;;5009396;28;20190;-53
2023/03/22 03:46:53;;;;;;;6.87;6.17;;;;;;;;;;5009069;28;20186;-53
2023/03/22 03:49:21;;;;;;;6.10;5.57;;;;;;;;;;5007723;28;20630;-53
2023/03/22 03:51:52;;;;;;;9.40;7.30;;;;;;;;;;5005003;28;20191;-53
2023/03/22 03:54:19;;;;;;;7.50;6.63;;;;;;;;;;5009112;28;20174;-53
2023/03/22 03:56:48;;;;;;;7.20;6.50;;;;;;;;;;5007864;28;20240;-53
2023/03/22 03:59:15;;;;;;;8.13;7.07;;;;;;;;;;5008641;28;20182;-53
2023/03/22 04:01:49;;;;;;;7.20;6.47;;;;;;;;;;5008701;28;20185;-53
2023/03/22 04:04:16;;;;;;;11.27;6.93;;;;;;;;;;5006824;28;20185;-53
2023/03/22 04:06:42;;;;;;;9.73;6.33;;;;;;;;;;5010070;28;20225;-53
2023/03/22 04:09:08;;;;;;;9.23;7.00;;;;;;;;;;5009371;28;20206;-53
2023/03/22 04:11:34;;;;;;;9.33;6.17;;;;;;;;;;5009241;28;20233;-53
2023/03/22 04:14:00;;;;;;;7.60;6.23;;;;;;;;;;5008574;28;20245;-53
2023/03/22 04:16:26;;;;;;;8.60;7.10;;;;;;;;;;5008773;28;20540;-53
2023/03/22 04:18:52;;;;;;;7.60;6.47;;;;;;;;;;5009040;28;20823;-53
2023/03/22 04:21:20;;;;;;;10.40;6.27;;;;;;;;;;5021571;28;20861;-53
2023/03/22 04:23:47;;;;;;;10.53;6.57;;;;;;;;;;5007954;28;20193;-53
2023/03/22 04:26:13;;;;;;;7.57;6.40;;;;;;;;;;5008914;28;20181;-53
2023/03/22 04:28:39;;;;;;;11.07;7.73;;;;;;;;;;5008882;28;20213;-53
2023/03/22 04:31:05;;;;;;;9.73;7.93;;;;;;;;;;5009586;28;20179;-53
2023/03/22 04:33:38;;;;;;;11.07;7.23;;;;;;;;;;5005972;28;20285;-53
2023/03/22 04:36:04;;;;;;;10.47;6.50;;;;;;;;;;5007262;28;20189;-53
2023/03/22 04:38:30;;;;;;;8.97;7.00;;;;;;;;;;5007608;28;20666;-53
2023/03/22 04:40:56;;;;;;;8.73;6.53;;;;;;;;;;5009244;28;20677;-54
2023/03/22 04:43:22;;;;;;;6.83;6.13;;;;;;;;;;5006858;28;20198;-53
2023/03/22 04:45:48;;;;;;;6.50;5.90;;;;;;;;;;5009597;28;20933;-54
2023/03/22 04:48:16;;;;;;;8.40;6.53;;;;;;;;;;5007483;28;20190;-54
2023/03/22 04:50:42;;;;;;;9.63;6.80;;;;;;;;;;5018890;28;20182;-53
2023/03/22 04:53:08;;;;;;;8.80;6.60;;;;;;;;;;5009976;28;20186;-54
2023/03/22 04:55:34;;;;;;;6.47;5.83;;;;;;;;;;5012227;28;20175;-54
2023/03/22 04:58:00;;;;;;;7.97;5.77;;;;;;;;;;5011773;28;20993;-54
2023/03/22 05:00:28;;;;;;;7.83;5.80;;;;;;;;;;5011423;28;20642;-53
2023/03/22 05:02:55;;;;;;;10.73;5.50;;;;;;;;;;5010462;28;20186;-53
2023/03/22 05:05:21;;;;;;;10.77;6.57;;;;;;;;;;5011800;28;20553;-53
2023/03/22 05:07:47;;;;;;;12.70;6.67;;;;;;;;;;5015548;28;20574;-53
2023/03/22 05:10:13;;;;;;;6.27;5.47;;;;;;;;;;5018896;28;20178;-54
2023/03/22 05:12:39;;;;;;;7.50;5.43;;;;;;;;;;5010019;28;20202;-53
2023/03/22 05:15:05;;;;;;;7.53;6.50;;;;;;;;;;5009076;28;20229;-53
2023/03/22 05:17:31;;;;;;;7.80;5.30;;;;;;;;;;5010644;28;20703;-53
2023/03/22 05:19:57;;;;;;;8.87;6.03;;;;;;;;;;5008842;28;20226;-53
2023/03/22 05:22:23;;;;;;;10.37;6.30;;;;;;;;;;5009403;28;20185;-53
2023/03/22 05:24:50;;;;;;;10.10;5.97;;;;;;;;;;5011426;28;20225;-53
2023/03/22 05:27:16;;;;;;;7.43;6.77;;;;;;;;;;5010413;28;20245;-53
2023/03/22 05:29:43;;;;;;;7.73;5.50;;;;;;;;;;5011702;28;20619;-53
2023/03/22 05:32:10;;;;;;;9.30;5.80;;;;;;;;;;5012020;28;20635;-53
2023/03/22 05:34:37;;;;;;;10.03;5.27;;;;;;;;;;5010332;28;20167;-54
2023/03/22 05:37:03;;;;;;;6.40;5.80;;;;;;;;;;5022002;28;20193;-54
2023/03/22 05:39:30;;;;;;;8.00;5.47;;;;;;;;;;5011624;28;20649;-54
2023/03/22 05:41:56;;;;;;;7.90;6.20;;;;;;;;;;5012130;28;20197;-54
2023/03/22 05:44:22;;;;;;;7.43;6.07;;;;;;;;;;5010970;28;20183;-54
2023/03/22 05:46:48;;;;;;;8.67;4.90;;;;;;;;;;5011352;28;20171;-55
2023/03/22 05:49:14;;;;;;;10.50;5.23;;;;;;;;;;5010725;28;20202;-54
2023/03/22 05:51:41;;;;;;;7.87;5.47;;;;;;;;;;5017020;28;20182;-54
2023/03/22 05:54:08;;;;;;;7.10;5.43;;;;;;;;;;5010668;28;20171;-54
2023/03/22 05:56:35;;;;;;;12.00;5.60;;;;;;;;;;5011373;28;20713;-55
2023/03/22 05:59:02;;;;;;;7.57;5.80;;;;;;;;;;5011362;28;20170;-53
2023/03/22 06:01:28;;;;;;;5.87;5.13;;;;;;;;;;5011603;28;20191;-54
2023/03/22 06:03:54;;;;;;;6.00;4.73;;;;;;;;;;5009946;28;20167;-54
2023/03/22 06:06:20;;;;;;;9.53;5.60;;;;;;;;;;5011291;28;20717;-54
2023/03/22 06:08:46;;;;;;;7.70;5.00;;;;;;;;;;5008505;28;20202;-54
2023/03/22 06:11:12;;;;;;;5.93;5.17;;;;;;;;;;5011691;28;20285;-54
2023/03/22 06:13:38;;;;;;;8.17;5.43;;;;;;;;;;5010961;28;20183;-54
2023/03/22 06:16:05;;;;;;;6.70;5.00;;;;;;;;;;5011372;28;20190;-57
2023/03/22 06:18:32;;;;;;;7.10;4.63;;;;;;;;;;5009771;28;20290;-55
2023/03/22 06:20:59;;;;;;;7.17;4.67;;;;;;;;;;5018261;28;20737;-54
2023/03/22 06:23:25;;;;;;;8.63;4.20;;;;;;;;;;5010725;28;20175;-53
2023/03/22 06:25:51;;;;;;;7.13;4.60;;;;;;;;;;5010615;28;20182;-53
2023/03/22 06:28:17;;;;;;;5.53;4.20;;;;;;;;;;5009904;28;20256;-53
2023/03/22 06:30:43;;;;;;;7.37;5.17;;;;;;;;;;5014350;28;20183;-53
2023/03/22 06:33:09;;;;;;;5.20;4.70;;;;;;;;;;5010328;28;20764;-53
2023/03/22 06:35:35;;;;;;;7.77;4.70;;;;;;;;;;5010840;28;20676;-53
2023/03/22 06:38:01;;;;;;;6.97;4.60;;;;;;;;;;5010591;28;20170;-53
2023/03/22 06:40:28;;;;;;;8.53;4.57;;;;;;;;;;5011088;28;20166;-53
2023/03/22 06:42:54;;;;;;;7.70;3.80;;;;;;;;;;5009969;28;20228;-53
2023/03/22 06:45:20;;;;;;;8.67;3.40;;;;;;;;;;5010152;28;20197;-53
2023/03/22 06:47:47;;;;;;;10.10;5.27;;;;;;;;;;5008639;28;20285;-53
2023/03/22 06:50:14;;;;;;;9.70;4.33;;;;;;;;;;5008161;28;20186;-53
2023/03/22 06:52:40;;;;;;;6.87;4.90;;;;;;;;;;5007767;28;20198;-53
2023/03/22 06:55:07;;;;;;;6.77;3.90;;;;;;;;;;5008048;28;20190;-53
2023/03/22 06:57:33;;;;;;;7.27;4.27;;;;;;;;;;5006436;28;20634;-53
2023/03/22 06:59:59;;;;;;;6.77;4.50;;;;;;;;;;5010232;28;20190;-53
2023/03/22 07:02:25;;;;;;;5.27;4.03;;;;;;;;;;5010883;28;20190;-53
2023/03/22 07:04:51;;;;;;;4.47;3.67;;;;;;;;;;5014695;28;20710;-53
2023/03/22 07:07:17;;;;;;;5.13;3.43;;;;;;;;;;4993828;28;20218;-53
2023/03/22 07:09:43;;;;;;;5.50;3.70;;;;;;;;;;4990942;28;20564;-53
2023/03/22 07:12:09;;;;;;;7.73;3.90;;;;;;;;;;4990635;28;20202;-53
2023/03/22 07:14:35;;;;;;;5.97;3.80;;;;;;;;;;4990328;28;20241;-53
2023/03/22 07:17:01;;;;;;;6.13;4.27;;;;;;;;;;4991552;28;20260;-53
2023/03/22 07:19:28;;;;;;;6.43;4.00;;;;;;;;;;5024146;28;20558;-53
2023/03/22 07:21:54;;;;;;;4.27;3.50;;;;;;;;;;5029619;28;20176;-53
2023/03/22 07:24:20;;;;;;;4.53;3.73;;;;;;;;;;5029659;28;20565;-53
2023/03/22 07:26:46;;;;;;;3.93;3.20;;;;;;;;;;5030221;28;20209;-54
2023/03/22 07:29:12;;;;;;;5.80;3.60;;;;;;;;;;5029447;28;20194;-53
2023/03/22 07:31:38;;;;;;;6.47;3.30;;;;;;;;;;5025697;28;20866;-53
2023/03/22 07:34:05;;;;;;;5.60;3.87;;;;;;;;;;5028571;28;20614;-54
2023/03/22 07:36:32;;;;;;;4.90;3.33;;;;;;;;;;5028979;28;20186;-53
2023/03/22 07:38:58;;;;;;;4.93;3.30;;;;;;;;;;5029763;28;20166;-53
2023/03/22 07:41:25;;;;;;;3.63;3.13;;;;;;;;;;5029648;28;20229;-53
2023/03/22 07:43:52;;;;;;;4.03;3.30;;;;;;;;;;5026226;28;20708;-53
2023/03/22 07:46:18;;;;;;;5.40;2.87;;;;;;;;;;4996680;28;20183;-53
2023/03/22 07:48:44;;;;;;;4.10;2.87;;;;;;;;;;4989385;28;20742;-53
2023/03/22 07:51:10;;;;;;;4.43;3.17;;;;;;;;;;5011598;28;20177;-53
2023/03/22 07:53:36;;;;;;;3.97;3.10;;;;;;;;;;5029057;28;20724;-53
2023/03/22 07:56:03;;;;;;;6.10;3.37;;;;;;;;;;5029010;28;20256;-53
2023/03/22 07:58:29;;;;;;;5.83;3.23;;;;;;;;;;5028639;28;20177;-53
2023/03/22 08:00:57;;;;;;;6.53;2.27;;;;;;;;;;5029028;28;20166;-53
2023/03/22 08:03:24;;;;;;;5.47;2.40;;;;;;;;;;5027796;28;20174;-53
2023/03/22 08:05:50;;;;;;;5.77;2.20;;;;;;;;;;5019738;28;20182;-53
2023/03/22 08:08:16;;;;;;;3.47;2.47;;;;;;;;;;5009839;28;21003;-53
2023/03/22 08:10:42;;;;;;;2.87;2.43;;;;;;;;;;5009895;28;20166;-53
2023/03/22 08:13:08;;;;;;;4.43;1.97;;;;;;;;;;5009761;28;20171;-54
2023/03/22 08:15:36;;;;;;;2.50;1.80;;;;;;;;;;5009922;28;20768;-54
2023/03/22 08:18:02;;;;;;;2.80;1.87;;;;;;;;;;4999184;28;20194;-54
2023/03/22 08:20:28;;;;;;;6.83;2.97;;;;;;;;;;5026827;28;20233;-54
2023/03/22 08:22:54;;;;;;;3.83;2.23;;;;;;;;;;5029114;28;20188;-53
2023/03/22 08:25:22;;;;;;;3.73;2.10;;;;;;;;;;5029736;28;20166;-54
2023/03/22 08:27:48;;;;;;;4.50;2.33;;;;;;;;;;5033341;28;20288;-54
2023/03/22 08:30:14;;;;;;;3.83;2.17;;;;;;;;;;5033217;28;20213;-53
2023/03/22 08:32:41;;;;;;;3.73;1.97;;;;;;;;;;5032753;28;20151;-54
2023/03/22 08:35:07;;;;;;;3.17;1.70;;;;;;;;;;5032354;28;20177;-54
2023/03/22 08:37:33;;;;;;;2.43;1.80;;;;;;;;;;5030715;28;20178;-53
2023/03/22 08:39:59;;;;;;;4.80;2.13;;;;;;;;;;5032532;28;20196;-53
2023/03/22 08:42:25;;;;;;;4.57;2.20;;;;;;;;;;5033128;28;20780;-54
2023/03/22 08:44:51;;;;;;;3.87;1.93;;;;;;;;;;5032898;28;20192;-53
2023/03/22 08:47:18;;;;;;;3.90;2.03;;;;;;;;;;5032639;28;20228;-53
2023/03/22 08:49:44;;;;;;;4.83;2.13;;;;;;;;;;5031913;28;20170;-53
2023/03/22 08:52:10;;;;;;;6.60;2.00;;;;;;;;;;5005509;28;20180;-54
2023/03/22 08:54:37;;;;;;;3.63;2.23;;;;;;;;;;4993531;28;20634;-53
2023/03/22 08:57:03;;;;;;;2.37;1.90;;;;;;;;;;4993448;28;20164;-53
2023/03/22 08:59:29;;;;;;;2.53;1.90;;;;;;;;;;4993271;28;20674;-54
2023/03/22 09:01:55;;;;;;;4.10;1.90;;;;;;;;;;4993075;28;20536;-54
2023/03/22 09:04:21;;;;;;;3.33;1.70;;;;;;;;;;4992303;28;20626;-53
2023/03/22 09:06:47;;;;;;;3.10;1.90;;;;;;;;;;5009527;28;20182;-53
2023/03/22 09:09:13;;;;;;;3.13;2.30;;;;;;;;;;5032020;28;20280;-53
2023/03/22 09:11:41;;;;;;;2.23;1.97;;;;;;;;;;5032255;28;20204;-53
2023/03/22 09:14:07;;;;;;;5.53;2.20;;;;;;;;;;5032388;28;20178;-53
2023/03/22 09:16:33;;;;;;;3.27;1.83;;;;;;;;;;5031926;28;20250;-53
2023/03/22 09:19:01;;;;;;;2.53;1.77;;;;;;;;;;5014167;28;20542;-54
2023/03/22 09:21:28;;;;;;;3.03;2.10;;;;;;;;;;5015513;28;20231;-54
2023/03/22 09:23:54;;;;;;;3.50;2.10;;;;;;;;;;5032290;28;20696;-54
2023/03/22 09:26:21;;;;;;;2.00;1.53;;;;;;;;;;5031799;28;20166;-53
2023/03/22 09:28:47;;;;;;;3.50;2.10;;;;;;;;;;5032069;28;20202;-53
2023/03/22 09:31:13;;;;;;;2.87;2.07;;;;;;;;;;5031549;28;20166;-53
2023/03/22 09:33:40;;;;;;;7.07;2.50;;;;;;;;;;5030841;28;20182;-53
2023/03/22 09:36:07;;;;;;;5.10;1.93;;;;;;;;;;5032132;28;20168;-53
2023/03/22 09:38:34;;;;;;;5.60;2.90;;;;;;;;;;5028850;28;20903;-53
2023/03/22 09:41:05;;;;;;;3.47;2.23;;;;;;;;;;5031951;28;20162;-53
2023/03/22 09:43:46;;;;;;;3.57;2.00;;;;;;;;;;5031651;28;20166;-54
2023/03/22 09:46:19;;;;;;;1.80;1.60;;;;;;;;;;5031614;28;20513;-53
2023/03/22 09:48:46;;;;;;;2.63;1.97;;;;;;;;;;5030517;28;20288;-53
2023/03/22 09:51:39;;;;;;;6.20;1.97;;;;;;;;;;5031583;28;20312;-51
2023/03/22 09:54:11;;;;;;;4.17;2.20;;;;;;;;;;5002033;28;20698;-51
2023/03/22 09:56:37;;;;;;;4.27;2.10;;;;;;;;;;5011912;28;20213;-51
2023/03/22 09:59:21;;;;;;;2.63;2.43;;;;;;;;;;5011475;28;20178;-51
2023/03/22 10:01:59;;;;;;;3.93;1.80;;;;;;;;;;5011820;28;20162;-51
2023/03/22 10:04:25;;;;;;;4.07;1.77;;;;;;;;;;5010865;28;20607;-50
2023/03/22 10:07:00;;;;;;;4.73;1.93;;;;;;;;;;5011189;28;20213;-51
2023/03/22 10:09:31;;;;;;;2.17;1.93;;;;;;;;;;5011080;28;20201;-51
2023/03/22 10:12:06;;;;;;;3.77;2.40;;;;;;;;;;5011371;28;20225;-51
2023/03/22 10:14:35;;;;;;;3.47;1.87;;;;;;;;;;5011205;28;20167;-51
2023/03/22 10:17:04;;;;;;;4.63;1.70;;;;;;;;;;5011226;28;20638;-51
2023/03/22 10:19:46;;;;;;;2.87;1.83;;;;;;;;;;5010249;28;20225;-51
2023/03/22 10:22:15;;;;;;;4.20;1.70;;;;;;;;;;5013045;28;20170;-51
2023/03/22 10:24:43;;;;;;;4.97;1.93;;;;;;;;;;5031015;28;20170;-51
2023/03/22 10:27:16;;;;;;;5.17;2.13;;;;;;;;;;5030342;28;20792;-51
2023/03/22 10:29:46;;;;;;;4.63;2.00;;;;;;;;;;5030706;28;20676;-51
2023/03/22 10:32:19;;;;;;;4.53;2.20;;;;;;;;;;5030853;28;20170;-51
2023/03/22 10:34:46;;;;;;;4.10;2.00;;;;;;;;;;5030031;28;20241;-51
2023/03/22 10:37:17;;;;;;;4.20;1.80;;;;;;;;;;5029410;28;20197;-51
2023/03/22 10:39:49;;;;;;;2.43;1.73;;;;;;;;;;4991141;28;20164;-51
2023/03/22 10:42:17;;;;;;;5.90;2.10;;;;;;;;;;4991453;28;20191;-51
2023/03/22 10:45:06;;;;;;;2.23;2.00;;;;;;;;;;4991173;28;20164;-51
2023/03/22 10:47:41;;;;;;;4.40;1.90;;;;;;;;;;4990729;28;20242;-51
2023/03/22 10:50:13;;;;;;;3.30;1.80;;;;;;;;;;4990239;28;20521;-51
2023/03/22 10:52:42;;;;;;;4.90;2.43;;;;;;;;;;4994371;28;20638;-51
2023/03/22 10:55:09;;;;;;;2.60;1.40;;;;;;;;;;5030585;28;20522;-51
2023/03/22 10:57:36;;;;;;;4.63;2.10;;;;;;;;;;5030386;28;20264;-51
2023/03/22 11:00:07;;;;;;;2.07;1.73;;;;;;;;;;5029983;28;20166;-51
2023/03/22 11:02:34;;;;;;;1.53;1.40;;;;;;;;;;5030344;28;20538;-51
2023/03/22 11:05:02;;;;;;;4.23;1.70;;;;;;;;;;5029196;28;20181;-53
2023/03/22 11:07:36;;;;;;;3.83;2.07;;;;;;;;;;5030327;28;20619;-54
2023/03/22 11:10:08;;;;;;;3.77;2.27;;;;;;;;;;4998126;28;20184;-54
2023/03/22 11:12:35;;;;;;;2.57;2.13;;;;;;;;;;5010145;28;20194;-53
2023/03/22 11:15:02;;;;;;;3.33;1.83;;;;;;;;;;5010454;28;20167;-54
2023/03/22 11:17:29;;;;;;;3.70;1.73;;;;;;;;;;5010312;28;20179;-53
2023/03/22 11:20:00;;;;;;;3.23;1.80;;;;;;;;;;5009475;28;20214;-53
2023/03/22 11:22:37;;;;;;;2.37;1.90;;;;;;;;;;5010508;28;20535;-53
2023/03/22 11:25:06;;;;;;;5.73;2.20;;;;;;;;;;5026920;28;20200;-53
2023/03/22 11:27:35;;;;;;;4.67;1.93;;;;;;;;;;5029574;28;20201;-53
2023/03/22 11:30:19;;;;;;;4.50;1.90;;;;;;;;;;5029791;28;20177;-53
2023/03/22 11:32:45;;;;;;;3.03;2.00;;;;;;;;;;5028954;28;20245;-53
2023/03/22 11:35:21;;;;;;;3.53;1.80;;;;;;;;;;5030051;28;20215;-53
2023/03/22 11:37:48;;;;;;;4.30;1.80;;;;;;;;;;5029078;28;20761;-53
2023/03/22 11:40:18;;;;;;;10.47;2.10;;;;;;;;;;5026800;28;20193;-53
2023/03/22 11:42:45;;;;;;;3.67;1.77;;;;;;;;;;5029465;28;20173;-53
2023/03/22 11:45:15;;;;;;;4.93;2.07;;;;;;;;;;5029898;28;20585;-53
2023/03/22 11:47:42;;;;;;;4.43;2.10;;;;;;;;;;5029583;28;20684;-53
2023/03/22 11:50:09;;;;;;;5.00;2.07;;;;;;;;;;5029404;28;20170;-54
2023/03/22 11:52:35;;;;;;;3.57;2.80;;;;;;;;;;5029608;28;20169;-54
2023/03/22 11:55:02;;;;;;;2.30;1.83;;;;;;;;;;5025681;28;20186;-53
2023/03/22 11:57:31;;;;;;;3.13;1.70;;;;;;;;;;5029527;28;20162;-58
2023/03/22 12:00:18;;;;;;;4.40;2.00;;;;;;;;;;5029565;28;20665;-54
2023/03/22 12:02:49;;;;;;;5.07;2.20;;;;;;;;;;5033160;28;20174;-54
2023/03/22 12:05:21;;;;;;;2.10;1.90;;;;;;;;;;5033473;28;20170;-53
2023/03/22 12:07:49;;;;;;;2.00;1.70;;;;;;;;;;5033607;28;20696;-54
2023/03/22 12:10:30;;;;;;;1.80;1.60;;;;;;;;;;5016790;28;20194;-53
2023/03/22 12:13:15;;;;;;;3.77;1.83;;;;;;;;;;5013546;28;20684;-53
2023/03/22 12:15:47;;;;;;;3.77;1.90;;;;;;;;;;5013863;28;20178;-54
2023/03/22 12:18:16;;;;;;;1.70;1.47;;;;;;;;;;5002106;28;20582;-53
2023/03/22 12:20:47;;;;;;;2.97;2.03;;;;;;;;;;4993814;28;20230;-54
2023/03/22 12:23:17;;;;;;;3.93;1.93;;;;;;;;;;5008931;28;20182;-53
2023/03/22 12:25:48;;;;;;;3.27;1.80;;;;;;;;;;5032491;28;20557;-53
2023/03/22 12:28:17;;;;;;;5.43;1.70;;;;;;;;;;5033335;28;20917;-53
2023/03/22 12:30:45;;;;;;;2.73;1.60;;;;;;;;;;5033075;28;20158;-54
2023/03/22 12:33:21;;;;;;;5.07;1.67;;;;;;;;;;5032203;28;20257;-54
2023/03/22 12:35:48;;;;;;;5.37;2.03;;;;;;;;;;5033250;28;20309;-53
2023/03/22 12:38:17;;;;;;;2.57;1.83;;;;;;;;;;5024412;28;20182;-53
2023/03/22 12:40:43;;;;;;;1.80;1.70;;;;;;;;;;5007765;28;20194;-54
2023/03/22 12:43:15;;;;;;;3.10;1.93;;;;;;;;;;5009190;28;20195;-58
2023/03/22 12:45:47;;;;;;;3.27;1.97;;;;;;;;;;5013345;28;20705;-58
2023/03/22 12:48:24;;;;;;;2.13;1.87;;;;;;;;;;5011466;28;20574;-58
2023/03/22 12:50:56;;;;;;;2.87;2.03;;;;;;;;;;5009036;28;20182;-58
2023/03/22 12:53:25;;;;;;;4.10;2.07;;;;;;;;;;5010982;28;20644;-58
2023/03/22 12:55:52;;;;;;;4.33;1.93;;;;;;;;;;5007958;28;20279;-58
2023/03/22 12:58:20;;;;;;;4.40;2.20;;;;;;;;;;5009635;28;20183;-57
2023/03/22 13:00:49;;;;;;;2.53;2.30;;;;;;;;;;5008964;28;20199;-55
2023/03/22 13:03:15;;;;;;;3.33;2.93;;;;;;;;;;5009666;28;20188;-55
2023/03/22 13:05:41;;;;;;;3.83;2.00;;;;;;;;;;5012691;28;20647;-56
2023/03/22 13:08:07;;;;;;;3.95;2.38;;;;;;;;;;5010778;28;20431;-58
2023/03/22 13:10:35;;;;;;;7.33;2.23;;;;;;;;;;5012691;28;20185;-55
2023/03/22 13:13:13;;;;;;;4.10;2.10;;;;;;;;;;5011463;28;20284;-55
2023/03/22 13:15:40;;;;;;;4.70;2.20;;;;;;;;;;5012346;28;20238;-55
2023/03/22 13:18:26;;;;;;;2.93;1.77;;;;;;;;;;5001744;28;21098;-54
2023/03/22 13:21:11;;;;;;;8.20;2.20;;;;;;;;;;5001496;28;20212;-54
2023/03/22 13:23:52;;;;;;;5.50;2.17;;;;;;;;;;4996399;28;20178;-54
2023/03/22 13:26:19;;;;;;;5.10;2.10;;;;;;;;;;5031309;28;20525;-54
2023/03/22 13:28:54;;;;;;;4.57;2.47;;;;;;;;;;5030899;28;20674;-54
2023/03/22 13:31:31;;;;;;;9.20;2.30;;;;;;;;;;5031106;28;20280;-54
2023/03/22 13:34:03;;;;;;;2.10;1.90;;;;;;;;;;5030135;28;20169;-54
2023/03/22 13:36:30;;;;;;;3.57;2.10;;;;;;;;;;5031998;28;20170;-55
2023/03/22 13:38:58;;;;;;;5.23;2.40;;;;;;;;;;5026784;28;20259;-56
2023/03/22 13:41:31;;;;;;;9.20;2.03;;;;;;;;;;5031695;28;20163;-61
2023/03/22 13:43:59;;;;;;;3.93;2.10;;;;;;;;;;5031707;28;20162;-55
2023/03/22 13:46:25;;;;;;;3.80;2.00;;;;;;;;;;5025642;28;20178;-55
2023/03/22 13:48:54;;;;;;;2.83;1.80;;;;;;;;;;5010801;28;20190;-55
2023/03/22 13:51:20;;;;;;;3.40;2.03;;;;;;;;;;5011799;28;20159;-55
2023/03/22 13:53:59;;;;;;;4.33;2.07;;;;;;;;;;5011276;28;20630;-55
2023/03/22 13:56:51;;;;;;;5.87;2.20;;;;;;;;;;5011390;28;20182;-55
2023/03/22 13:59:28;;;;;;;5.97;2.00;;;;;;;;;;5011404;28;20166;-55
2023/03/22 14:02:14;;;;;;;9.63;1.73;;;;;;;;;;5008659;28;20175;-56
2023/03/22 14:04:42;;;;;;;6.43;1.90;;;;;;;;;;5009829;28;20183;-56
2023/03/22 14:07:14;;;;;;;3.63;1.93;;;;;;;;;;5011274;28;20162;-57
2023/03/22 14:09:48;;;;;;;6.07;2.27;;;;;;;;;;5010647;28;20194;-54
2023/03/22 14:12:37;;;;;;;3.97;1.93;;;;;;;;;;5017212;28;20213;-55
2023/03/22 14:15:04;;;;;;;3.13;2.13;;;;;;;;;;5010692;28;20731;-55
2023/03/22 14:17:48;;;;;;;2.53;1.83;;;;;;;;;;5010919;28;20194;-55
2023/03/22 14:20:20;;;;;;;6.97;2.70;;;;;;;;;;5010596;28;20589;-55
2023/03/22 14:22:50;;;;;;;3.80;2.60;;;;;;;;;;5011205;28;20635;-55
2023/03/22 14:25:18;;;;;;;6.57;2.47;;;;;;;;;;5018161;28;20239;-55
2023/03/22 14:27:45;;;;;;;5.63;1.90;;;;;;;;;;5030707;28;20308;-55
2023/03/22 14:30:40;;;;;;;4.70;2.23;;;;;;;;;;5021674;28;20186;-54
2023/03/22 14:33:12;;;;;;;7.20;1.93;;;;;;;;;;5001299;28;20225;-55
2023/03/22 14:35:40;;;;;;;2.57;2.00;;;;;;;;;;5010741;28;20256;-55
2023/03/22 14:38:08;;;;;;;7.63;2.23;;;;;;;;;;5010311;28;20258;-57
2023/03/22 14:40:36;;;;;;;9.53;2.00;;;;;;;;;;5018636;28;20185;-57
2023/03/22 14:43:29;;;;;;;3.83;1.90;;;;;;;;;;5020600;28;20345;-56
2023/03/22 14:46:04;;;;;;;3.63;1.73;;;;;;;;;;4997159;28;20190;-55
2023/03/22 14:48:32;;;;;;;3.60;2.13;;;;;;;;;;5008251;28;20237;-54
2023/03/22 14:50:58;;;;;;;3.43;2.23;;;;;;;;;;5010639;28;20171;-55
2023/03/22 14:53:29;;;;;;;2.90;1.80;;;;;;;;;;5010277;28;20175;-55
2023/03/22 14:55:57;;;;;;;2.13;1.93;;;;;;;;;;5018364;28;20185;-54